createdAt,value
2018-07-11T00:01:11.839Z,12.70
2018-07-11T00:03:47.309Z,13.23
2018-07-11T00:06:17.047Z,13.17
2018-07-11T00:08:45.599Z,12.60
2018-07-11T00:11:14.442Z,14.20
2018-07-11T00:13:44.038Z,14.50
2018-07-11T00:16:13.160Z,14.20
2018-07-11T00:18:41.702Z,14.10
2018-07-11T00:21:10.215Z,13.23
2018-07-11T00:23:39.329Z,12.47
2018-07-11T00:26:09.325Z,14.03
2018-07-11T00:28:38.063Z,13.10
2018-07-11T00:31:07.087Z,13.30
2018-07-11T00:33:35.814Z,12.97
2018-07-11T00:36:04.307Z,11.83
2018-07-11T00:38:32.823Z,13.03
2018-07-11T00:41:02.047Z,12.93
2018-07-11T00:43:32.332Z,12.37
2018-07-11T00:46:01.352Z,12.03
2018-07-11T00:48:30.551Z,13.40
2018-07-11T00:50:59.817Z,14.73
2018-07-11T00:53:31.455Z,13.87
2018-07-11T00:56:01.100Z,12.90
2018-07-11T00:58:39.427Z,13.77
2018-07-11T01:01:16.669Z,13.63
2018-07-11T01:03:52.291Z,12.73
2018-07-11T01:06:20.949Z,13.40
2018-07-11T01:08:58.486Z,12.47
2018-07-11T01:11:32.066Z,13.23
2018-07-11T01:14:00.750Z,12.93
2018-07-11T01:16:29.712Z,14.40
2018-07-11T01:19:01.124Z,13.17
2018-07-11T01:21:30.467Z,14.67
2018-07-11T01:23:59.302Z,15.23
2018-07-11T01:26:29.871Z,16.30
2018-07-11T01:28:58.611Z,14.67
2018-07-11T01:31:27.288Z,14.70
2018-07-11T01:33:56.363Z,14.53
2018-07-11T01:36:25.655Z,15.17
2018-07-11T01:38:54.569Z,16.10
2018-07-11T01:41:23.219Z,15.93
2018-07-11T01:43:51.856Z,15.37
2018-07-11T01:46:20.575Z,16.73
2018-07-11T01:48:49.072Z,17.20
2018-07-11T01:51:17.836Z,15.67
2018-07-11T01:53:46.546Z,17.93
2018-07-11T01:56:15.153Z,16.80
2018-07-11T01:58:47.546Z,18.83
2018-07-11T02:01:16.831Z,16.60
2018-07-11T02:03:45.323Z,19.23
2018-07-11T02:06:13.887Z,17.20
2018-07-11T02:08:42.939Z,17.13
2018-07-11T02:11:11.624Z,17.17
2018-07-11T02:13:40.334Z,16.97
2018-07-11T02:16:09.363Z,17.03
2018-07-11T02:18:37.993Z,16.93
2018-07-11T02:21:06.907Z,17.73
2018-07-11T02:23:38.676Z,17.90
2018-07-11T02:26:07.287Z,16.77
2018-07-11T02:28:36.017Z,16.60
2018-07-11T02:31:05.173Z,16.80
2018-07-11T02:33:33.860Z,16.43
2018-07-11T02:36:02.495Z,17.63
2018-07-11T02:38:31.007Z,16.17
2018-07-11T02:40:59.501Z,15.87
2018-07-11T02:43:28.347Z,16.07
2018-07-11T02:45:57.059Z,16.30
2018-07-11T02:48:25.552Z,16.27
2018-07-11T02:50:54.113Z,14.90
2018-07-11T02:53:24.288Z,13.47
2018-07-11T02:55:53.557Z,15.03
2018-07-11T02:58:22.111Z,15.73
2018-07-11T03:00:51.155Z,15.13
2018-07-11T03:03:19.663Z,14.03
2018-07-11T03:05:48.369Z,16.40
2018-07-11T03:08:17.916Z,16.37
2018-07-11T03:10:47.159Z,16.53
2018-07-11T03:13:18.894Z,16.10
2018-07-11T03:15:47.362Z,16.93
2018-07-11T03:18:15.909Z,17.67
2018-07-11T03:20:44.385Z,18.17
2018-07-11T03:23:12.892Z,18.23
2018-07-11T03:25:41.644Z,18.77
2018-07-11T03:28:10.365Z,18.10
2018-07-11T03:30:39.043Z,18.10
2018-07-11T03:33:07.654Z,16.87
2018-07-11T03:35:36.169Z,17.90
2018-07-11T03:38:04.702Z,18.03
2018-07-11T03:40:33.324Z,15.60
2018-07-11T03:43:01.895Z,16.33
2018-07-11T03:45:30.428Z,16.50
2018-07-11T03:47:58.927Z,16.93
2018-07-11T03:50:27.711Z,16.70
2018-07-11T03:52:56.304Z,16.00
2018-07-11T03:55:24.858Z,17.87
2018-07-11T03:57:53.420Z,17.83
2018-07-11T04:00:25.519Z,16.97
2018-07-11T04:02:54.813Z,17.30
2018-07-11T04:05:23.584Z,16.67
2018-07-11T04:07:52.252Z,17.47
2018-07-11T04:10:20.761Z,19.47
2018-07-11T04:12:58.682Z,17.50
2018-07-11T04:15:27.564Z,17.73
2018-07-11T04:17:56.201Z,18.27
2018-07-11T04:20:25.113Z,18.47
2018-07-11T04:22:53.750Z,20.07
2018-07-11T04:25:22.475Z,19.37
2018-07-11T04:27:51.111Z,19.70
2018-07-11T04:30:19.836Z,20.23
2018-07-11T04:32:48.507Z,19.20
2018-07-11T04:35:17.060Z,19.83
2018-07-11T04:37:45.742Z,19.47
2018-07-11T04:40:14.222Z,19.40
2018-07-11T04:42:42.873Z,19.03
2018-07-11T04:45:11.451Z,18.40
2018-07-11T04:47:39.931Z,17.10
2018-07-11T04:50:08.728Z,17.20
2018-07-11T04:52:37.520Z,16.97
2018-07-11T04:55:06.367Z,18.43
2018-07-11T04:57:35.043Z,17.93
2018-07-11T05:00:03.543Z,18.07
2018-07-11T05:02:32.362Z,17.60
2018-07-11T05:05:01.063Z,17.10
2018-07-11T05:07:29.581Z,17.67
2018-07-11T05:09:58.078Z,16.73
2018-07-11T05:12:26.657Z,17.50
2018-07-11T05:14:55.252Z,16.60
2018-07-11T05:17:23.793Z,16.40
2018-07-11T05:19:55.695Z,15.33
2018-07-11T05:22:24.573Z,15.47
2018-07-11T05:24:53.174Z,15.40
2018-07-11T05:27:21.707Z,15.97
2018-07-11T05:29:50.753Z,15.40
2018-07-11T05:32:19.561Z,15.93
2018-07-11T05:34:48.060Z,17.00
2018-07-11T05:37:16.743Z,15.90
2018-07-11T05:39:45.238Z,17.03
2018-07-11T05:42:13.794Z,16.10
2018-07-11T05:44:41.962Z,16.43
2018-07-11T05:47:10.495Z,15.47
2018-07-11T05:49:39.186Z,16.13
2018-07-11T05:52:08.048Z,17.80
2018-07-11T05:54:36.515Z,18.43
2018-07-11T05:57:05.200Z,16.53
2018-07-11T05:59:33.679Z,16.80
2018-07-11T06:02:02.159Z,16.60
2018-07-11T06:04:30.981Z,15.80
2018-07-11T06:06:59.550Z,16.70
2018-07-11T06:09:28.292Z,15.97
2018-07-11T06:12:03.168Z,16.67
2018-07-11T06:14:31.850Z,15.00
2018-07-11T06:17:01.292Z,16.50
2018-07-11T06:19:30.060Z,16.07
2018-07-11T06:21:58.607Z,15.10
2018-07-11T06:24:27.280Z,15.70
2018-07-11T06:26:55.826Z,16.43
2018-07-11T06:29:24.399Z,16.23
2018-07-11T06:31:53.355Z,15.27
2018-07-11T06:34:21.889Z,15.50
2018-07-11T06:36:50.395Z,15.07
2018-07-11T06:39:18.936Z,15.63
2018-07-11T06:41:47.486Z,15.90
2018-07-11T06:44:16.242Z,14.60
2018-07-11T06:46:44.905Z,14.87
2018-07-11T06:49:13.608Z,14.90
2018-07-11T06:51:42.136Z,14.83
2018-07-11T06:54:10.807Z,14.30
2018-07-11T06:56:39.357Z,14.43
2018-07-11T06:59:07.919Z,15.60
2018-07-11T07:01:36.416Z,14.50
2018-07-11T07:04:04.946Z,15.50
2018-07-11T07:06:33.723Z,16.43
2018-07-11T07:09:02.267Z,15.53
2018-07-11T07:11:30.800Z,16.17
2018-07-11T07:13:59.319Z,15.77
2018-07-11T07:16:27.959Z,15.53
2018-07-11T07:18:56.360Z,15.57
2018-07-11T07:21:25.048Z,15.90
2018-07-11T07:23:53.663Z,17.00
2018-07-11T07:26:22.221Z,16.53
2018-07-11T07:28:50.871Z,16.17
2018-07-11T07:31:19.404Z,16.47
2018-07-11T07:33:48.128Z,17.17
2018-07-11T07:36:16.646Z,16.40
2018-07-11T07:38:45.637Z,16.17
2018-07-11T07:41:14.469Z,16.13
2018-07-11T07:43:44.271Z,18.20
2018-07-11T07:46:12.862Z,17.27
2018-07-11T07:48:41.596Z,16.60
2018-07-11T07:51:10.247Z,16.23
2018-07-11T07:53:38.766Z,17.93
2018-07-11T07:56:07.292Z,18.77
2018-07-11T07:58:35.820Z,17.40
2018-07-11T08:01:04.678Z,17.70
2018-07-11T08:03:35.602Z,13.83
2018-07-11T08:06:04.224Z,15.00
2018-07-11T08:08:33.173Z,15.30
2018-07-11T08:11:01.911Z,14.93
2018-07-11T08:13:30.477Z,14.00
2018-07-11T08:15:59.033Z,15.10
2018-07-11T08:18:27.642Z,14.03
2018-07-11T08:20:56.198Z,14.70
2018-07-11T08:23:41.350Z,15.17
2018-07-11T08:26:22.495Z,13.87
2018-07-11T08:29:48.137Z,13.57
2018-07-11T08:32:27.571Z,13.10
2018-07-11T08:38:11.524Z,13.57
2018-07-11T08:43:03.079Z,12.77
2018-07-11T08:45:47.141Z,12.13
2018-07-11T08:50:28.823Z,13.07
2018-07-11T08:55:30.060Z,13.33
2018-07-11T08:58:09.797Z,12.87
2018-07-11T09:00:49.380Z,13.20
2018-07-11T09:05:32.033Z,12.67
2018-07-11T09:08:36.424Z,12.27
2018-07-11T09:11:21.211Z,12.07
2018-07-11T09:14:02.713Z,12.10
2018-07-11T09:16:47.430Z,13.00
2018-07-11T09:21:34.029Z,12.40
2018-07-11T09:24:50.301Z,11.33
2018-07-11T09:27:18.711Z,10.00
2018-07-11T09:29:48.097Z,10.17
2018-07-11T09:32:17.221Z,10.13
2018-07-11T09:34:46.150Z,10.00
2018-07-11T09:37:14.709Z,9.90
2018-07-11T09:39:43.761Z,9.60
2018-07-11T09:42:12.294Z,8.63
2018-07-11T09:44:41.033Z,8.85
2018-07-11T09:47:14.902Z,8.80
2018-07-11T09:49:43.690Z,8.07
2018-07-11T09:52:12.480Z,9.00
2018-07-11T09:54:41.004Z,8.13
2018-07-11T09:57:09.705Z,9.77
2018-07-11T09:59:38.228Z,9.77
2018-07-11T10:02:06.953Z,10.07
2018-07-11T10:04:35.691Z,9.87
2018-07-11T10:07:05.204Z,9.83
2018-07-11T10:09:33.753Z,9.03
2018-07-11T10:12:02.370Z,9.37
2018-07-11T10:14:30.989Z,10.47
2018-07-11T10:16:59.495Z,10.47
2018-07-11T10:19:28.043Z,10.97
2018-07-11T10:21:56.836Z,9.63
2018-07-11T10:24:25.554Z,13.77
2018-07-11T10:26:54.304Z,11.07
2018-07-11T10:29:23.520Z,11.20
2018-07-11T10:31:52.508Z,10.83
2018-07-11T10:34:21.352Z,12.27
2018-07-11T10:36:49.927Z,13.33
2018-07-11T10:39:18.850Z,13.17
2018-07-11T10:41:47.620Z,14.70
2018-07-11T10:44:16.252Z,13.93
2018-07-11T10:46:44.941Z,15.73
2018-07-11T10:49:14.037Z,15.03
2018-07-11T10:51:43.138Z,14.67
2018-07-11T10:54:11.711Z,14.00
2018-07-11T10:56:40.462Z,14.70
2018-07-11T10:59:09.130Z,16.50
2018-07-11T11:01:37.968Z,16.43
2018-07-11T11:04:06.855Z,16.07
2018-07-11T11:06:35.496Z,16.43
2018-07-11T11:09:04.810Z,16.87
2018-07-11T11:11:33.699Z,16.20
2018-07-11T11:14:02.250Z,14.07
2018-07-11T11:16:31.063Z,14.83
2018-07-11T11:18:59.711Z,15.93
2018-07-11T11:21:28.497Z,14.43
2018-07-11T11:23:57.111Z,17.47
2018-07-11T11:26:25.987Z,16.57
2018-07-11T11:28:54.851Z,17.10
2018-07-11T11:31:23.615Z,15.20
2018-07-11T11:33:52.455Z,18.80
2018-07-11T11:36:21.191Z,18.33
2018-07-11T11:38:49.811Z,17.80
2018-07-11T11:41:18.438Z,17.60
2018-07-11T11:43:47.472Z,18.43
2018-07-11T11:46:15.972Z,18.30
2018-07-11T11:48:44.493Z,17.73
2018-07-11T11:51:12.911Z,18.23
2018-07-11T11:53:41.635Z,16.03
2018-07-11T11:56:10.144Z,18.60
2018-07-11T11:58:38.771Z,16.50
2018-07-11T12:01:07.296Z,19.53
2018-07-11T12:03:35.848Z,18.43
2018-07-11T12:06:04.417Z,19.60
2018-07-11T12:08:33.820Z,19.73
2018-07-11T12:11:02.519Z,20.13
2018-07-11T12:13:31.447Z,22.67
2018-07-11T12:16:00.133Z,21.13
2018-07-11T12:18:28.684Z,20.47
2018-07-11T12:20:59.685Z,21.33
2018-07-11T12:23:28.517Z,23.83
2018-07-11T12:26:06.466Z,21.13
2018-07-11T12:28:35.261Z,23.07
2018-07-11T12:31:04.042Z,22.33
2018-07-11T12:33:33.021Z,23.97
2018-07-11T12:36:02.193Z,23.40
2018-07-11T12:38:31.067Z,22.53
2018-07-11T12:41:00.017Z,22.90
2018-07-11T12:43:28.950Z,19.73
2018-07-11T12:45:58.152Z,22.60
2018-07-11T12:48:32.103Z,21.83
2018-07-11T12:51:01.075Z,19.93
2018-07-11T12:53:29.990Z,19.87
2018-07-11T12:55:58.382Z,18.27
2018-07-11T12:58:27.429Z,19.83
2018-07-11T13:00:56.608Z,18.93
2018-07-11T13:03:26.089Z,19.03
2018-07-11T13:05:54.685Z,18.10
2018-07-11T13:08:23.542Z,19.23
2018-07-11T13:10:52.452Z,20.17
2018-07-11T13:13:21.512Z,19.50
2018-07-11T13:15:50.223Z,19.10
2018-07-11T13:18:18.948Z,18.37
2018-07-11T13:20:47.680Z,20.17
2018-07-11T13:23:16.442Z,20.57
2018-07-11T13:25:45.368Z,21.20
2018-07-11T13:28:13.920Z,20.80
2018-07-11T13:30:42.525Z,20.37
2018-07-11T13:33:11.101Z,20.90
2018-07-11T13:35:39.694Z,21.67
2018-07-11T13:38:10.767Z,21.93
2018-07-11T13:40:39.750Z,22.20
2018-07-11T13:43:08.911Z,22.80
2018-07-11T13:45:37.833Z,22.13
2018-07-11T13:48:06.516Z,20.90
2018-07-11T13:50:35.752Z,20.70
2018-07-11T13:53:04.414Z,20.50
2018-07-11T13:55:33.284Z,20.47
2018-07-11T13:58:02.514Z,22.43
2018-07-11T14:00:32.628Z,20.77
2018-07-11T14:03:02.482Z,22.93
2018-07-11T14:05:31.469Z,19.47
2018-07-11T14:08:00.368Z,20.03
2018-07-11T14:10:29.166Z,20.13
2018-07-11T14:12:58.025Z,19.57
2018-07-11T14:15:27.048Z,21.10
2018-07-11T14:17:56.102Z,20.83
2018-07-11T14:20:24.698Z,19.73
2018-07-11T14:22:53.658Z,20.33
2018-07-11T14:25:22.481Z,20.63
2018-07-11T14:27:51.634Z,21.67
2018-07-11T14:30:24.681Z,20.60
2018-07-11T14:32:59.689Z,23.30
2018-07-11T14:35:28.635Z,25.27
2018-07-11T14:37:57.235Z,23.27
2018-07-11T14:40:25.908Z,26.03
2018-07-11T14:42:54.853Z,25.37
2018-07-11T14:45:23.722Z,25.73
2018-07-11T14:47:57.572Z,29.23
2018-07-11T14:50:26.211Z,30.20
2018-07-11T14:52:55.205Z,29.10
2018-07-11T14:55:24.694Z,28.73
2018-07-11T14:57:53.438Z,25.90
2018-07-11T15:00:22.041Z,29.50
2018-07-11T15:02:50.931Z,29.57
2018-07-11T15:05:19.780Z,28.33
2018-07-11T15:07:48.433Z,28.73
2018-07-11T15:10:17.187Z,29.77
2018-07-11T15:12:45.958Z,27.97
2018-07-11T15:15:14.495Z,27.67
2018-07-11T15:17:43.289Z,26.70
2018-07-11T15:20:12.015Z,24.37
2018-07-11T15:22:40.674Z,26.07
2018-07-11T15:25:09.231Z,26.33
2018-07-11T15:27:38.144Z,25.60
2018-07-11T15:30:07.019Z,26.90
2018-07-11T15:32:35.936Z,26.70
2018-07-11T15:35:05.241Z,29.10
2018-07-11T15:37:34.031Z,28.70
2018-07-11T15:40:04.303Z,27.40
2018-07-11T15:42:33.182Z,27.63
2018-07-11T15:45:01.874Z,28.17
2018-07-11T15:47:31.006Z,26.47
2018-07-11T15:50:02.039Z,28.90
2018-07-11T15:52:33.590Z,29.07
2018-07-11T15:55:04.614Z,24.97
2018-07-11T15:57:39.533Z,26.10
2018-07-11T16:00:10.683Z,26.23
2018-07-11T16:02:45.489Z,25.27
2018-07-11T16:05:17.977Z,24.77
2018-07-11T16:07:48.400Z,25.87
2018-07-11T16:10:18.230Z,25.07
2018-07-11T16:12:46.921Z,22.63
2018-07-11T16:15:15.944Z,23.00
2018-07-11T16:17:44.673Z,20.93
2018-07-11T16:20:13.735Z,18.93
2018-07-11T16:22:42.389Z,18.43
2018-07-11T16:25:11.350Z,18.03
2018-07-11T16:27:40.474Z,18.13
2018-07-11T16:30:09.757Z,17.57
2018-07-11T16:32:38.695Z,13.90
2018-07-11T16:35:07.225Z,14.60
2018-07-11T16:37:36.232Z,12.07
2018-07-11T16:40:04.932Z,13.60
2018-07-11T16:42:34.182Z,12.10
2018-07-11T16:45:03.486Z,11.87
2018-07-11T16:47:32.252Z,14.00
2018-07-11T16:50:01.342Z,12.23
2018-07-11T16:52:30.187Z,11.10
2018-07-11T16:54:58.966Z,10.80
2018-07-11T16:57:36.327Z,9.40
2018-07-11T17:00:07.631Z,10.67
2018-07-11T17:02:36.730Z,12.33
2018-07-11T17:05:08.005Z,13.20
2018-07-11T17:07:51.987Z,14.30
2018-07-11T17:10:22.414Z,15.57
2018-07-11T17:12:53.361Z,15.33
2018-07-11T17:15:24.519Z,14.70
2018-07-11T17:17:56.221Z,15.43
2018-07-11T17:20:25.475Z,15.43
2018-07-11T17:22:57.501Z,15.17
2018-07-11T17:25:33.092Z,15.50
2018-07-11T17:28:03.836Z,16.50
2018-07-11T17:30:34.325Z,15.07
2018-07-11T17:33:04.728Z,17.53
2018-07-11T17:35:33.887Z,16.50
2018-07-11T17:38:05.272Z,14.77
2018-07-11T17:40:37.531Z,15.07
2018-07-11T17:43:09.462Z,17.57
2018-07-11T17:45:39.008Z,17.70
2018-07-11T17:50:20.932Z,18.50
2018-07-11T17:52:59.769Z,17.37
2018-07-11T17:55:34.090Z,18.83
2018-07-11T17:58:05.206Z,17.13
2018-07-11T18:00:39.700Z,17.90
2018-07-11T18:05:25.913Z,19.70
2018-07-11T18:07:56.280Z,19.03
2018-07-11T18:10:56.613Z,18.40
2018-07-11T18:13:31.776Z,18.20
2018-07-11T18:16:46.741Z,19.87
2018-07-11T18:21:01.257Z,19.37
2018-07-11T18:23:45.077Z,22.50
2018-07-11T18:27:33.051Z,22.80
2018-07-11T18:30:13.445Z,20.07
2018-07-11T18:32:50.390Z,20.93
2018-07-11T18:35:26.963Z,20.90
2018-07-11T18:37:58.689Z,20.67
2018-07-11T18:40:34.451Z,21.17
2018-07-11T18:44:22.150Z,21.87
2018-07-11T18:47:11.063Z,22.10
2018-07-11T18:50:48.390Z,20.57
2018-07-11T18:53:24.551Z,20.33
2018-07-11T18:56:20.378Z,23.53
2018-07-11T18:58:53.612Z,22.23
2018-07-11T19:01:35.439Z,22.03
2018-07-11T19:04:45.348Z,19.50
2018-07-11T19:07:20.078Z,18.47
2018-07-11T19:09:54.336Z,18.23
2018-07-11T19:12:30.239Z,21.07
2018-07-11T19:15:07.795Z,21.00
2018-07-11T19:17:45.035Z,19.00
2018-07-11T19:20:37.095Z,20.00
2018-07-11T19:23:19.902Z,20.00
2018-07-11T19:26:59.985Z,19.17
2018-07-11T19:31:48.985Z,17.93
2018-07-11T19:34:33.382Z,20.03
2018-07-11T19:37:07.838Z,19.77
2018-07-11T19:40:47.232Z,21.43
2018-07-11T19:43:40.884Z,20.87
2018-07-11T19:46:19.263Z,20.67
2018-07-11T19:51:01.347Z,23.17
2018-07-11T19:53:39.889Z,21.23
2018-07-11T19:56:21.255Z,22.23
2018-07-11T19:58:50.098Z,22.30
2018-07-11T20:01:19.253Z,23.47
2018-07-11T20:03:48.112Z,23.80
2018-07-11T20:06:16.871Z,22.70
2018-07-11T20:08:45.678Z,23.07
2018-07-11T20:11:14.806Z,20.83
2018-07-11T20:13:43.434Z,23.03
2018-07-11T20:16:12.282Z,23.83
2018-07-11T20:18:41.380Z,23.07
2018-07-11T20:21:09.847Z,22.97
2018-07-11T20:23:38.574Z,22.23
2018-07-11T20:26:07.607Z,23.03
2018-07-11T20:28:36.463Z,21.50
2018-07-11T20:31:05.115Z,18.60
2018-07-11T20:33:33.758Z,19.23
2018-07-11T20:36:02.496Z,18.67
2018-07-11T20:38:31.593Z,17.23
2018-07-11T20:41:00.468Z,18.80
2018-07-11T20:43:29.105Z,19.43
2018-07-11T20:45:58.238Z,18.80
2018-07-11T20:48:27.285Z,19.30
2018-07-11T20:50:55.880Z,19.50
2018-07-11T20:53:24.689Z,20.00
2018-07-11T20:55:54.019Z,20.37
2018-07-11T20:58:27.973Z,19.47
2018-07-11T21:01:07.908Z,24.73
2018-07-11T21:04:01.391Z,22.13
2018-07-11T21:07:43.177Z,22.13
2018-07-11T21:10:38.129Z,19.53
2018-07-11T21:13:18.035Z,22.50
2018-07-11T21:16:30.591Z,20.83
2018-07-11T21:19:01.861Z,23.60
2018-07-11T21:21:31.495Z,25.00
2018-07-11T21:24:00.230Z,23.37
2018-07-11T21:26:29.192Z,25.10
2018-07-11T21:28:58.058Z,22.67
2018-07-11T21:31:26.940Z,22.20
2018-07-11T21:33:55.732Z,22.07
2018-07-11T21:36:24.260Z,20.47
2018-07-11T21:38:53.495Z,20.03
2018-07-11T21:41:22.401Z,19.83
2018-07-11T21:43:51.388Z,21.23
2018-07-11T21:46:20.378Z,19.33
2018-07-11T21:48:48.973Z,19.27
2018-07-11T21:51:17.559Z,21.37
2018-07-11T21:53:46.289Z,21.60
2018-07-11T21:56:14.827Z,21.93
2018-07-11T21:58:43.616Z,21.07
2018-07-11T22:01:12.804Z,22.07
2018-07-11T22:03:41.516Z,22.43
2018-07-11T22:06:10.269Z,24.43
2018-07-11T22:08:38.946Z,25.13
2018-07-11T22:11:07.162Z,23.80
2018-07-11T22:13:36.162Z,23.00
2018-07-11T22:16:05.047Z,21.77
2018-07-11T22:18:35.798Z,23.13
2018-07-11T22:21:04.151Z,24.10
2018-07-11T22:23:31.801Z,23.93
2018-07-11T22:25:59.446Z,24.73
2018-07-11T22:28:27.082Z,23.57
2018-07-11T22:30:54.429Z,26.40
2018-07-11T22:33:21.871Z,26.23
2018-07-11T22:35:49.379Z,24.43
2018-07-11T22:38:16.701Z,25.20
2018-07-11T22:40:44.535Z,25.23
2018-07-11T22:43:11.915Z,28.43
2018-07-11T22:45:39.273Z,27.77
2018-07-11T22:48:06.787Z,24.83
2018-07-11T22:50:34.133Z,27.23
2018-07-11T22:53:01.466Z,25.70
2018-07-11T22:55:28.881Z,26.50
2018-07-11T22:57:56.213Z,24.37
2018-07-11T23:00:23.588Z,26.50
2018-07-11T23:02:50.976Z,24.90
2018-07-11T23:05:18.308Z,26.03
2018-07-11T23:07:45.828Z,26.57
2018-07-11T23:10:13.171Z,23.30
2018-07-11T23:12:40.554Z,24.70
2018-07-11T23:15:07.912Z,24.47
2018-07-11T23:17:35.285Z,23.93
2018-07-11T23:20:02.640Z,23.93
2018-07-11T23:22:30.188Z,24.53
2018-07-11T23:24:57.583Z,25.87
2018-07-11T23:27:25.152Z,26.37
2018-07-11T23:29:54.479Z,26.40
2018-07-11T23:32:21.872Z,26.63
2018-07-11T23:34:49.269Z,24.90
2018-07-11T23:37:16.611Z,23.27
2018-07-11T23:39:44.112Z,23.30
2018-07-11T23:42:11.537Z,20.47
2018-07-11T23:44:38.874Z,20.83
2018-07-11T23:47:06.241Z,23.00
2018-07-11T23:49:33.736Z,23.77
2018-07-11T23:52:01.095Z,22.60
2018-07-11T23:54:28.438Z,21.20
2018-07-11T23:56:55.820Z,24.47
2018-07-11T23:59:23.169Z,23.77
